HTDA/DAR METAR and TAF weather

Enter ICAO airport designator
Station Type Date Time Source
HTDA METAR 2019/08/19 11:00 UTC NOAA

HTDA 191100Z 14020KT 9999 FEW034 BKN035 30/20 Q1015 NOSIG


Station Type Date Time Source
HTDA Decoded METAR 2019/08/19 11:00 UTC NOAA

Station name not available
Aug 19, 2019 - 07:00 AM EDT / 2019.08.19 1100 UTC
Wind: from the SE (140 degrees) at 23 MPH (20 KT):0
Visibility: greater than 7 mile(s):0
Sky conditions: mostly cloudy
Temperature: 86 F (30 C)
Dew Point: 68 F (20 C)
Relative Humidity: 55%
Pressure (altimeter): 29.97 in. Hg (1015 hPa)
ob: HTDA 191100Z 14020KT 9999 FEW034 BKN035 30/20 Q1015 NOSIG
cycle: 11

Station Type Date Time Source
HTDA TAF 2019/08/19 12:27 UTC NOAA

TAF TAF HTDA 191100Z 1912/2018 13015KT 9999 SCT035
BECMG 1920/1923 00000KT
BECMG 2005/2008 19010KT BKN014

Example: see airport list